createdAt,value
2018-09-13T00:00:39.886Z,4.50
2018-09-13T00:02:52.121Z,7.40
2018-09-13T00:05:04.432Z,4.80
2018-09-13T00:07:16.659Z,5.90
2018-09-13T00:09:28.824Z,4.63
2018-09-13T00:11:41.058Z,5.43
2018-09-13T00:13:53.259Z,7.20
2018-09-13T00:16:05.515Z,4.67
2018-09-13T00:18:17.725Z,6.47
2018-09-13T00:20:29.940Z,4.80
2018-09-13T00:22:42.148Z,5.17
2018-09-13T00:24:54.315Z,5.13
2018-09-13T00:27:06.498Z,5.33
2018-09-13T00:29:18.671Z,5.80
2018-09-13T00:31:30.896Z,4.53
2018-09-13T00:33:43.212Z,6.30
2018-09-13T00:35:55.378Z,3.97
2018-09-13T00:38:07.575Z,5.00
2018-09-13T00:40:19.753Z,6.90
2018-09-13T00:42:31.962Z,6.13
2018-09-13T00:44:44.167Z,10.20
2018-09-13T00:46:56.386Z,7.93
2018-09-13T00:49:08.551Z,7.63
2018-09-13T00:51:20.770Z,7.63
2018-09-13T00:53:33.003Z,8.30
2018-09-13T00:55:45.211Z,6.23
2018-09-13T00:57:57.403Z,6.23
2018-09-13T01:00:09.584Z,8.37
2018-09-13T01:02:21.763Z,6.63
2018-09-13T01:04:33.966Z,7.73
2018-09-13T01:06:46.189Z,6.53
2018-09-13T01:08:58.445Z,7.67
2018-09-13T01:11:10.653Z,6.37
2018-09-13T01:13:22.862Z,6.27
2018-09-13T01:15:35.068Z,5.90
2018-09-13T01:17:47.298Z,5.73
2018-09-13T01:19:59.482Z,5.30
2018-09-13T01:22:11.644Z,6.23
2018-09-13T01:24:23.871Z,6.23
2018-09-13T01:26:36.091Z,8.13
2018-09-13T01:28:48.310Z,7.33
2018-09-13T01:31:00.523Z,8.20
2018-09-13T01:33:12.725Z,7.30
2018-09-13T01:35:24.907Z,6.53
2018-09-13T01:37:37.138Z,9.37
2018-09-13T01:39:49.569Z,7.83
2018-09-13T01:42:01.743Z,8.73
2018-09-13T01:44:13.929Z,8.07
2018-09-13T01:46:26.111Z,10.70
2018-09-13T01:48:38.301Z,9.63
2018-09-13T01:50:50.512Z,8.50
2018-09-13T01:53:02.694Z,8.87
2018-09-13T01:55:14.919Z,7.87
2018-09-13T01:57:27.112Z,10.43
2018-09-13T01:59:39.380Z,9.00
2018-09-13T02:01:51.677Z,8.70
2018-09-13T02:04:03.973Z,8.77
2018-09-13T02:06:16.179Z,7.30
2018-09-13T02:08:28.412Z,9.00
2018-09-13T02:10:40.643Z,8.67
2018-09-13T02:12:52.824Z,9.50
2018-09-13T02:15:05.091Z,8.77
2018-09-13T02:17:17.264Z,9.60
2018-09-13T02:19:29.502Z,9.50
2018-09-13T02:21:41.691Z,8.53
2018-09-13T02:23:53.906Z,9.67
2018-09-13T02:26:06.143Z,10.30
2018-09-13T02:28:18.352Z,10.00
2018-09-13T02:30:30.596Z,8.20
2018-09-13T02:32:42.771Z,9.20
2018-09-13T02:34:55.078Z,10.50
2018-09-13T02:37:07.269Z,9.50
2018-09-13T02:39:19.483Z,11.47
2018-09-13T02:41:31.701Z,13.27
2018-09-13T02:43:43.895Z,11.87
2018-09-13T02:45:56.119Z,11.90
2018-09-13T02:48:08.351Z,10.73
2018-09-13T02:50:20.558Z,12.33
2018-09-13T02:52:32.755Z,14.27
2018-09-13T02:54:44.923Z,15.37
2018-09-13T02:56:57.180Z,12.77
2018-09-13T02:59:09.403Z,12.93
2018-09-13T03:01:21.567Z,12.97
2018-09-13T03:03:33.771Z,10.90
2018-09-13T03:05:46.047Z,11.60
2018-09-13T03:07:58.250Z,12.33
2018-09-13T03:10:10.424Z,10.30
2018-09-13T03:12:22.680Z,11.83
2018-09-13T03:14:34.937Z,12.87
2018-09-13T03:16:47.131Z,11.57
2018-09-13T03:18:59.355Z,10.87
2018-09-13T03:21:11.531Z,12.17
2018-09-13T03:23:23.792Z,12.63
2018-09-13T03:25:35.967Z,13.60
2018-09-13T03:27:48.222Z,12.13
2018-09-13T03:30:00.502Z,10.37
2018-09-13T03:32:12.702Z,12.60
2018-09-13T03:34:24.925Z,11.20
2018-09-13T03:36:37.101Z,10.57
2018-09-13T03:38:49.359Z,9.80
2018-09-13T03:41:01.543Z,11.07
2018-09-13T03:43:13.790Z,7.57
2018-09-13T03:45:25.978Z,11.47
2018-09-13T03:47:38.229Z,13.77
2018-09-13T03:49:50.462Z,11.53
2018-09-13T03:52:02.693Z,12.33
2018-09-13T03:54:14.940Z,12.30
2018-09-13T03:56:27.484Z,14.40
2018-09-13T03:58:39.720Z,10.70
2018-09-13T04:00:52.166Z,12.00
2018-09-13T04:03:04.370Z,11.27
2018-09-13T04:05:16.662Z,11.93
2018-09-13T04:07:28.874Z,12.10
2018-09-13T04:09:41.071Z,12.53
2018-09-13T04:11:53.282Z,12.43
2018-09-13T04:14:05.643Z,14.23
2018-09-13T04:16:17.875Z,13.50
2018-09-13T04:18:30.098Z,12.40
2018-09-13T04:20:42.320Z,12.80
2018-09-13T04:22:54.531Z,13.70
2018-09-13T04:25:06.851Z,11.00
2018-09-13T04:27:19.027Z,12.83
2018-09-13T04:29:31.272Z,11.67
2018-09-13T04:31:43.541Z,12.20
2018-09-13T04:33:55.737Z,12.10
2018-09-13T04:36:08.020Z,12.60
2018-09-13T04:38:20.180Z,13.47
2018-09-13T04:40:32.402Z,11.53
2018-09-13T04:42:44.654Z,9.90
2018-09-13T04:44:56.834Z,12.17
2018-09-13T04:47:09.043Z,10.87
2018-09-13T04:49:21.263Z,13.00
2018-09-13T04:51:33.498Z,13.83
2018-09-13T04:53:45.716Z,12.77
2018-09-13T04:55:57.972Z,10.57
2018-09-13T04:58:10.190Z,12.17
2018-09-13T05:00:22.431Z,12.87
2018-09-13T05:02:34.631Z,14.20
2018-09-13T05:04:46.870Z,12.77
2018-09-13T05:06:59.067Z,12.00
2018-09-13T05:09:12.723Z,14.50
2018-09-13T05:11:25.181Z,13.57
2018-09-13T05:13:37.391Z,13.60
2018-09-13T05:15:49.601Z,13.43
2018-09-13T05:18:01.893Z,13.90
2018-09-13T05:20:14.083Z,13.37
2018-09-13T05:22:26.274Z,13.97
2018-09-13T05:24:38.510Z,12.07
2018-09-13T05:26:50.674Z,13.00
2018-09-13T05:29:02.912Z,14.10
2018-09-13T05:31:15.082Z,15.07
2018-09-13T05:33:27.300Z,15.70
2018-09-13T05:35:39.495Z,14.70
2018-09-13T05:37:51.706Z,14.83
2018-09-13T05:40:04.027Z,15.87
2018-09-13T05:42:16.231Z,13.83
2018-09-13T05:44:28.467Z,16.07
2018-09-13T05:46:40.671Z,16.30
2018-09-13T05:48:52.867Z,16.20
2018-09-13T05:51:05.151Z,16.03
2018-09-13T05:53:17.327Z,14.90
2018-09-13T05:55:29.579Z,13.13
2018-09-13T05:57:41.772Z,11.90
2018-09-13T05:59:53.978Z,13.87
2018-09-13T06:02:06.243Z,11.20
2018-09-13T06:04:18.532Z,14.83
2018-09-13T06:06:30.761Z,16.27
2018-09-13T06:08:42.977Z,15.00
2018-09-13T06:10:57.295Z,13.63
2018-09-13T06:13:09.554Z,15.97
2018-09-13T06:15:21.859Z,16.83
2018-09-13T06:17:34.059Z,14.67
2018-09-13T06:19:46.271Z,14.77
2018-09-13T06:21:58.495Z,10.23
2018-09-13T06:24:10.713Z,16.03
2018-09-13T06:26:22.962Z,17.27
2018-09-13T06:28:35.183Z,16.80
2018-09-13T06:30:47.426Z,15.73
2018-09-13T06:32:59.628Z,14.97
2018-09-13T06:35:11.863Z,15.80
2018-09-13T06:37:24.139Z,13.83
2018-09-13T06:39:36.322Z,15.20
2018-09-13T06:41:48.554Z,16.37
2018-09-13T06:44:00.789Z,16.33
2018-09-13T06:46:13.000Z,16.13
2018-09-13T06:48:25.307Z,19.23
2018-09-13T06:50:37.490Z,16.50
2018-09-13T06:52:49.692Z,18.67
2018-09-13T06:55:01.927Z,19.20
2018-09-13T06:57:14.167Z,20.13
2018-09-13T06:59:26.359Z,18.60
2018-09-13T07:01:38.576Z,18.10
2018-09-13T07:03:50.859Z,16.30
2018-09-13T07:06:03.086Z,15.73
2018-09-13T07:08:15.307Z,19.23
2018-09-13T07:10:27.514Z,22.97
2018-09-13T07:12:39.731Z,19.63
2018-09-13T07:14:51.950Z,19.80
2018-09-13T07:17:04.207Z,22.70
2018-09-13T07:19:16.437Z,20.53
2018-09-13T07:21:28.597Z,18.87
2018-09-13T07:23:40.862Z,18.23
2018-09-13T07:25:52.982Z,17.60
2018-09-13T07:28:05.211Z,19.33
2018-09-13T07:30:17.448Z,23.83
2018-09-13T07:32:29.718Z,23.57
2018-09-13T07:34:41.951Z,21.40
2018-09-13T07:36:54.190Z,22.53
2018-09-13T07:39:09.323Z,19.97
2018-09-13T07:41:21.570Z,20.27
2018-09-13T07:43:33.803Z,18.47
2018-09-13T07:45:46.026Z,19.67
2018-09-13T07:47:58.219Z,17.20
2018-09-13T07:50:10.450Z,18.83
2018-09-13T07:52:22.676Z,17.03
2018-09-13T07:54:34.959Z,20.87
2018-09-13T07:56:47.175Z,20.60
2018-09-13T07:58:59.510Z,21.03
2018-09-13T08:01:11.734Z,19.77
2018-09-13T08:03:23.929Z,23.87
2018-09-13T08:05:36.227Z,21.27
2018-09-13T08:07:48.417Z,20.07
2018-09-13T08:10:00.651Z,20.77
2018-09-13T08:12:12.926Z,20.00
2018-09-13T08:14:25.105Z,17.70
2018-09-13T08:16:37.335Z,19.63
2018-09-13T08:18:49.527Z,22.07
2018-09-13T08:21:01.731Z,18.70
2018-09-13T08:23:13.941Z,22.30
2018-09-13T08:25:26.131Z,20.93
2018-09-13T08:27:38.435Z,22.53
2018-09-13T08:29:50.745Z,19.00
2018-09-13T08:32:02.931Z,17.77
2018-09-13T08:34:15.139Z,18.17
2018-09-13T08:36:27.524Z,18.20
2018-09-13T08:38:39.767Z,19.10
2018-09-13T08:40:52.141Z,19.63
2018-09-13T08:43:04.413Z,20.33
2018-09-13T08:45:16.652Z,20.63
2018-09-13T08:47:29.011Z,17.97
2018-09-13T08:49:41.146Z,21.20
2018-09-13T08:51:53.404Z,21.80
2018-09-13T08:54:05.564Z,20.00
2018-09-13T08:56:17.864Z,20.73
2018-09-13T08:58:30.106Z,18.00
2018-09-13T09:00:42.330Z,18.97
2018-09-13T09:02:54.526Z,24.80
2018-09-13T09:05:07.147Z,20.20
2018-09-13T09:07:19.428Z,20.90
2018-09-13T09:09:31.630Z,22.87
2018-09-13T09:11:43.925Z,19.73
2018-09-13T09:13:56.058Z,21.67
2018-09-13T09:16:08.337Z,22.87
2018-09-13T09:18:20.627Z,23.03
2018-09-13T09:20:32.855Z,15.30
2018-09-13T09:22:45.083Z,18.90
2018-09-13T09:24:57.275Z,18.17
2018-09-13T09:27:09.582Z,16.93
2018-09-13T09:29:21.861Z,18.93
2018-09-13T09:31:34.019Z,17.17
2018-09-13T09:33:46.299Z,17.87
2018-09-13T09:35:58.528Z,21.17
2018-09-13T09:38:10.753Z,18.13
2018-09-13T09:40:22.973Z,17.33
2018-09-13T09:42:35.187Z,18.47
2018-09-13T09:44:47.396Z,23.97
2018-09-13T09:46:59.608Z,19.97
2018-09-13T09:49:11.841Z,28.70
2018-09-13T09:51:24.075Z,21.13
2018-09-13T09:53:36.278Z,21.47
2018-09-13T09:55:48.446Z,19.80
2018-09-13T09:58:00.758Z,18.07
2018-09-13T10:00:12.944Z,18.57
2018-09-13T10:02:25.203Z,19.77
2018-09-13T10:04:37.535Z,20.53
2018-09-13T10:06:49.714Z,21.77
2018-09-13T10:09:02.041Z,21.60
2018-09-13T10:11:14.258Z,18.20
2018-09-13T10:13:26.499Z,20.27
2018-09-13T10:15:44.305Z,22.37
2018-09-13T10:18:02.262Z,21.53
2018-09-13T10:20:20.160Z,18.17
2018-09-13T10:22:38.091Z,17.60
2018-09-13T10:24:55.940Z,18.13
2018-09-13T10:27:13.907Z,26.80
2018-09-13T10:29:31.767Z,20.73
2018-09-13T10:31:49.726Z,20.97
2018-09-13T10:34:07.611Z,22.90
2018-09-13T10:36:25.645Z,20.40
2018-09-13T10:38:43.494Z,20.23
2018-09-13T10:41:01.403Z,17.70
2018-09-13T10:43:19.394Z,18.70
2018-09-13T10:45:37.431Z,16.13
2018-09-13T10:47:56.929Z,14.53
2018-09-13T10:50:13.308Z,14.70
2018-09-13T10:52:32.566Z,13.73
2018-09-13T10:54:44.793Z,16.10
2018-09-13T10:57:01.575Z,13.43
2018-09-13T10:59:13.922Z,11.67
2018-09-13T11:01:26.114Z,14.40
2018-09-13T11:03:38.330Z,14.30
2018-09-13T11:05:50.598Z,13.43
2018-09-13T11:08:02.928Z,14.27
2018-09-13T11:10:15.163Z,14.93
2018-09-13T11:12:32.205Z,12.97
2018-09-13T11:14:47.830Z,13.40
2018-09-13T11:17:00.106Z,11.80
2018-09-13T11:19:12.678Z,11.70
2018-09-13T11:21:25.002Z,13.33
2018-09-13T11:23:37.209Z,13.90
2018-09-13T11:25:49.474Z,15.70
2018-09-13T11:28:01.781Z,12.67
2018-09-13T11:30:13.970Z,17.97
2018-09-13T11:32:26.228Z,14.33
2018-09-13T11:34:38.490Z,13.17
2018-09-13T11:36:50.709Z,12.63
2018-09-13T11:39:05.123Z,9.87
2018-09-13T11:41:17.445Z,16.60
2018-09-13T11:43:29.667Z,11.37
2018-09-13T11:45:43.188Z,11.83
2018-09-13T11:47:55.523Z,11.33
2018-09-13T11:50:07.915Z,10.30
2018-09-13T11:52:20.160Z,11.43
2018-09-13T11:54:32.396Z,8.73
2018-09-13T11:56:44.650Z,9.40
2018-09-13T11:58:56.967Z,13.23
2018-09-13T12:01:09.255Z,11.47
2018-09-13T12:03:21.527Z,10.83
2018-09-13T12:05:33.842Z,9.03
2018-09-13T12:07:46.072Z,10.47
2018-09-13T12:09:58.293Z,11.97
2018-09-13T12:12:10.473Z,10.50
2018-09-13T12:14:22.726Z,11.03
2018-09-13T12:16:34.995Z,10.80
2018-09-13T12:18:47.331Z,10.77
2018-09-13T12:20:59.551Z,13.80
2018-09-13T12:23:11.748Z,10.90
2018-09-13T12:25:23.989Z,16.57
2018-09-13T12:27:36.313Z,14.80
2018-09-13T12:29:48.506Z,11.23
2018-09-13T12:32:00.842Z,11.77
2018-09-13T12:34:13.035Z,13.27
2018-09-13T12:36:25.274Z,8.67
2018-09-13T12:38:37.484Z,11.87
2018-09-13T12:40:49.715Z,12.37
2018-09-13T12:43:01.920Z,11.47
2018-09-13T12:45:14.151Z,11.67
2018-09-13T12:47:26.418Z,11.50
2018-09-13T12:49:38.653Z,9.30
2018-09-13T12:51:50.954Z,11.60
2018-09-13T12:54:03.210Z,9.93
2018-09-13T12:56:15.508Z,11.47
2018-09-13T12:58:27.749Z,8.53
2018-09-13T13:00:40.228Z,10.93
2018-09-13T13:02:52.478Z,11.90
2018-09-13T13:05:06.725Z,8.80
2018-09-13T13:07:18.948Z,9.93
2018-09-13T13:09:31.299Z,11.10
2018-09-13T13:11:43.576Z,10.20
2018-09-13T13:13:55.834Z,8.47
2018-09-13T13:16:08.192Z,6.83
2018-09-13T13:18:20.517Z,8.73
2018-09-13T13:20:32.771Z,16.17
2018-09-13T13:22:45.015Z,11.63
2018-09-13T13:24:57.229Z,10.00
2018-09-13T13:27:09.552Z,9.03
2018-09-13T13:29:21.722Z,12.07
2018-09-13T13:31:33.937Z,9.13
2018-09-13T13:33:46.169Z,10.43
2018-09-13T13:35:58.416Z,7.10
2018-09-13T13:38:10.718Z,8.93
2018-09-13T13:40:22.971Z,7.87
2018-09-13T13:42:35.207Z,6.77
2018-09-13T13:44:47.451Z,8.37
2018-09-13T13:46:59.679Z,9.47
2018-09-13T13:49:11.966Z,6.77
2018-09-13T13:53:48.666Z,10.53
2018-09-13T13:56:00.913Z,6.17
2018-09-13T13:58:13.161Z,6.50
2018-09-13T14:00:25.404Z,8.97
2018-09-13T14:02:37.706Z,7.60
2018-09-13T14:04:50.060Z,5.90
2018-09-13T14:07:02.334Z,7.43
2018-09-13T14:09:14.558Z,11.27
2018-09-13T14:11:26.876Z,16.07
2018-09-13T14:13:39.646Z,8.67
2018-09-13T14:15:51.863Z,9.53
2018-09-13T14:18:04.144Z,11.20
2018-09-13T14:20:16.442Z,7.30
2018-09-13T14:22:28.686Z,5.67
2018-09-13T14:24:40.943Z,7.57
2018-09-13T14:26:53.151Z,5.30
2018-09-13T14:29:05.431Z,7.20
2018-09-13T14:31:17.695Z,7.47
2018-09-13T14:33:29.959Z,7.73
2018-09-13T14:35:42.411Z,9.63
2018-09-13T14:37:54.642Z,8.47
2018-09-13T14:40:06.919Z,11.80
2018-09-13T14:42:19.214Z,10.90
2018-09-13T14:44:31.421Z,8.00
2018-09-13T14:46:43.745Z,14.23
2018-09-13T14:48:55.963Z,10.97
2018-09-13T14:51:08.286Z,9.80
2018-09-13T14:53:20.521Z,10.57
2018-09-13T14:55:32.703Z,8.30
2018-09-13T14:57:44.922Z,8.37
2018-09-13T14:59:57.180Z,9.20
2018-09-13T15:02:09.401Z,9.30
2018-09-13T15:04:21.703Z,9.00
2018-09-13T15:06:33.982Z,11.80
2018-09-13T15:08:46.366Z,10.57
2018-09-13T15:10:58.583Z,8.40
2018-09-13T15:13:10.922Z,11.00
2018-09-13T15:15:23.185Z,11.27
2018-09-13T15:17:35.458Z,12.60
2018-09-13T15:19:47.670Z,9.80
2018-09-13T15:21:59.884Z,11.73
2018-09-13T15:24:12.144Z,11.57
2018-09-13T15:26:24.332Z,11.63
2018-09-13T15:28:36.572Z,12.07
2018-09-13T15:30:48.776Z,10.87
2018-09-13T15:33:01.024Z,14.83
2018-09-13T15:35:13.258Z,12.53
2018-09-13T15:37:25.499Z,12.50
2018-09-13T15:39:37.748Z,14.23
2018-09-13T15:41:49.999Z,11.70
2018-09-13T15:44:02.319Z,13.13
2018-09-13T15:46:14.541Z,10.73
2018-09-13T15:48:26.771Z,11.40
2018-09-13T15:50:39.042Z,13.03
2018-09-13T15:52:51.340Z,13.03
2018-09-13T15:55:03.562Z,10.53
2018-09-13T15:57:15.849Z,11.03
2018-09-13T15:59:28.250Z,11.67
2018-09-13T16:01:40.498Z,13.23
2018-09-13T16:03:52.759Z,10.53
2018-09-13T16:06:05.101Z,8.77
2018-09-13T16:08:17.320Z,13.17
2018-09-13T16:10:29.585Z,12.47
2018-09-13T16:12:41.862Z,13.27
2018-09-13T16:14:54.090Z,13.23
2018-09-13T16:17:06.310Z,14.63
2018-09-13T16:19:18.578Z,12.77
2018-09-13T16:21:30.819Z,17.30
2018-09-13T16:23:43.068Z,16.30
2018-09-13T16:25:55.343Z,14.07
2018-09-13T16:28:07.643Z,12.80
2018-09-13T16:30:19.858Z,17.63
2018-09-13T16:32:32.070Z,18.33
2018-09-13T16:34:44.369Z,17.57
2018-09-13T16:37:14.499Z,21.53
2018-09-13T16:39:32.549Z,20.03
2018-09-13T16:41:50.419Z,22.93
2018-09-13T16:44:04.806Z,25.07
2018-09-13T16:46:22.675Z,22.90
2018-09-13T16:48:40.485Z,21.00
2018-09-13T16:50:52.726Z,24.10
2018-09-13T16:53:05.036Z,26.00
2018-09-13T16:55:17.307Z,26.77
2018-09-13T16:57:29.516Z,29.77
2018-09-13T16:59:41.785Z,29.37
2018-09-13T17:01:54.053Z,31.23
2018-09-13T17:04:06.351Z,27.30
2018-09-13T17:06:18.568Z,29.47
2018-09-13T17:08:30.798Z,28.73
2018-09-13T17:10:43.052Z,28.83
2018-09-13T17:12:55.297Z,29.77
2018-09-13T17:15:07.623Z,28.23
2018-09-13T17:17:19.863Z,28.23
2018-09-13T17:19:32.064Z,30.83
2018-09-13T17:21:44.288Z,29.43
2018-09-13T17:23:56.529Z,30.83
2018-09-13T17:26:08.814Z,28.07
2018-09-13T17:28:21.127Z,25.97
2018-09-13T17:30:33.374Z,26.90
2018-09-13T17:32:45.714Z,24.70
2018-09-13T17:34:57.979Z,23.50
2018-09-13T17:37:10.270Z,26.13
2018-09-13T17:39:22.601Z,23.40
2018-09-13T17:41:34.952Z,25.17
2018-09-13T17:43:47.230Z,24.47
2018-09-13T17:45:59.500Z,27.90
2018-09-13T17:48:11.770Z,24.00
2018-09-13T17:50:24.059Z,28.03
2018-09-13T17:52:36.400Z,26.17
2018-09-13T17:54:48.655Z,26.87
2018-09-13T17:57:01.022Z,21.00
2018-09-13T17:59:13.267Z,23.67
2018-09-13T18:01:25.483Z,22.13
2018-09-13T18:03:37.903Z,18.87
2018-09-13T18:05:50.195Z,20.40
2018-09-13T18:08:02.496Z,18.00
2018-09-13T18:10:14.779Z,21.50
2018-09-13T18:12:27.066Z,17.90
2018-09-13T18:14:39.303Z,19.00
2018-09-13T18:16:51.526Z,19.10
2018-09-13T18:19:04.006Z,18.87
2018-09-13T18:21:16.286Z,18.20
2018-09-13T18:23:28.617Z,18.10
2018-09-13T18:25:41.334Z,18.27
2018-09-13T18:27:53.643Z,18.33
2018-09-13T18:30:06.028Z,19.00
2018-09-13T18:32:18.283Z,20.03
2018-09-13T18:34:30.535Z,18.57
2018-09-13T18:36:42.785Z,19.50
2018-09-13T18:38:55.121Z,20.17
2018-09-13T18:41:07.392Z,19.50
2018-09-13T18:43:19.743Z,20.87
2018-09-13T18:45:32.384Z,20.53
2018-09-13T18:47:44.655Z,20.80
2018-09-13T18:49:56.938Z,24.67
2018-09-13T18:52:09.250Z,24.33
2018-09-13T18:54:21.629Z,23.97
2018-09-13T18:56:33.803Z,24.33
2018-09-13T18:58:46.076Z,23.30
2018-09-13T19:00:58.339Z,25.27
2018-09-13T19:03:10.644Z,27.87
2018-09-13T19:05:22.993Z,23.30
2018-09-13T19:07:35.253Z,25.30
2018-09-13T19:09:47.527Z,22.87
2018-09-13T19:11:59.903Z,26.53
2018-09-13T19:14:12.159Z,26.33
2018-09-13T19:16:24.466Z,23.73
2018-09-13T19:18:36.724Z,21.50
2018-09-13T19:20:49.055Z,22.27
2018-09-13T19:23:01.315Z,19.53
2018-09-13T19:25:13.571Z,21.73
2018-09-13T19:27:25.828Z,22.37
2018-09-13T19:29:38.086Z,22.30
2018-09-13T19:31:50.446Z,23.23
2018-09-13T19:34:02.776Z,22.93
2018-09-13T19:36:15.046Z,23.00
2018-09-13T19:38:27.383Z,23.23
2018-09-13T19:40:39.659Z,25.30
2018-09-13T19:42:52.022Z,26.30
2018-09-13T19:45:04.568Z,27.17
2018-09-13T19:47:16.854Z,25.03
2018-09-13T19:49:29.073Z,25.00
2018-09-13T19:51:41.371Z,25.30
2018-09-13T19:53:53.667Z,25.90
2018-09-13T19:56:06.031Z,26.30
2018-09-13T19:58:18.290Z,28.73
2018-09-13T20:00:30.579Z,29.83
2018-09-13T20:02:42.930Z,28.87
2018-09-13T20:04:55.274Z,31.87
2018-09-13T20:07:07.547Z,28.40
2018-09-13T20:09:19.779Z,29.87
2018-09-13T20:11:32.076Z,30.20
2018-09-13T20:13:44.349Z,26.87
2018-09-13T20:15:56.634Z,27.40
2018-09-13T20:18:09.016Z,33.37
2018-09-13T20:20:21.194Z,29.47
2018-09-13T20:22:33.473Z,27.40
2018-09-13T20:24:45.769Z,27.40
2018-09-13T20:26:57.982Z,24.70
2018-09-13T20:29:10.283Z,25.60
2018-09-13T20:31:22.521Z,27.03
2018-09-13T20:33:34.824Z,30.83
2018-09-13T20:35:47.031Z,28.07
2018-09-13T20:38:00.051Z,27.77
2018-09-13T20:40:12.336Z,31.37
2018-09-13T20:42:24.600Z,32.70
2018-09-13T20:44:36.858Z,30.63
2018-09-13T20:46:49.142Z,37.47
2018-09-13T20:49:01.431Z,34.33
2018-09-13T20:51:13.729Z,32.80
2018-09-13T20:53:25.933Z,29.77
2018-09-13T20:55:38.229Z,31.37
2018-09-13T20:57:50.470Z,33.00
2018-09-13T21:00:02.797Z,33.93
2018-09-13T21:02:15.083Z,33.00
2018-09-13T21:04:27.358Z,28.80
2018-09-13T21:06:39.606Z,25.93
2018-09-13T21:08:51.895Z,24.03
2018-09-13T21:11:04.130Z,25.60
2018-09-13T21:13:16.409Z,23.47
2018-09-13T21:15:28.671Z,25.23
2018-09-13T21:17:40.891Z,26.30
2018-09-13T21:19:53.240Z,24.83
2018-09-13T21:22:05.468Z,27.40
2018-09-13T21:24:17.789Z,20.03
2018-09-13T21:26:30.031Z,20.73
2018-09-13T21:28:42.291Z,21.77
2018-09-13T21:30:54.575Z,19.67
2018-09-13T21:33:06.804Z,22.70
2018-09-13T21:35:19.072Z,21.27
2018-09-13T21:37:31.318Z,20.13
2018-09-13T21:39:43.556Z,22.00
2018-09-13T21:41:55.918Z,23.60
2018-09-13T21:44:08.212Z,21.67
2018-09-13T21:46:20.509Z,22.00
2018-09-13T21:48:32.735Z,18.27
2018-09-13T21:50:45.036Z,20.77
2018-09-13T21:52:57.294Z,20.47
2018-09-13T21:55:09.611Z,22.17
2018-09-13T21:57:21.888Z,23.43
2018-09-13T21:59:34.136Z,21.97
2018-09-13T22:01:46.363Z,20.23
2018-09-13T22:03:58.649Z,20.10
2018-09-13T22:06:10.879Z,21.37
2018-09-13T22:08:23.115Z,21.33
2018-09-13T22:10:35.348Z,21.87
2018-09-13T22:12:47.632Z,21.57
2018-09-13T22:14:59.862Z,25.13
2018-09-13T22:17:12.175Z,23.03
2018-09-13T22:19:24.386Z,22.47
2018-09-13T22:21:36.694Z,25.87
2018-09-13T22:23:48.867Z,23.87
2018-09-13T22:26:01.141Z,25.73
2018-09-13T22:28:13.386Z,26.10
2018-09-13T22:30:25.616Z,27.03
2018-09-13T22:32:37.845Z,29.90
2018-09-13T22:34:50.079Z,28.87
2018-09-13T22:37:02.351Z,29.80
2018-09-13T22:39:14.600Z,28.23
2018-09-13T22:41:26.798Z,29.40
2018-09-13T22:43:44.792Z,27.50
2018-09-13T22:45:57.016Z,26.10
2018-09-13T22:48:09.294Z,23.90
2018-09-13T22:50:21.539Z,22.83
2018-09-13T22:52:33.836Z,28.07
2018-09-13T22:54:49.245Z,18.00
2018-09-13T22:57:01.524Z,27.43
2018-09-13T22:59:13.730Z,33.83
2018-09-13T23:01:25.945Z,26.53
2018-09-13T23:03:38.166Z,29.80
2018-09-13T23:05:50.438Z,31.33
2018-09-13T23:08:02.705Z,29.00
2018-09-13T23:10:15.451Z,30.53
2018-09-13T23:12:27.655Z,27.30
2018-09-13T23:14:39.904Z,30.87
2018-09-13T23:16:52.146Z,30.30
2018-09-13T23:19:04.421Z,27.97
2018-09-13T23:21:16.649Z,25.90
2018-09-13T23:23:28.858Z,28.90
2018-09-13T23:25:41.098Z,28.00
2018-09-13T23:27:53.350Z,30.07
2018-09-13T23:30:06.134Z,29.07
2018-09-13T23:32:18.355Z,29.63
2018-09-13T23:34:30.576Z,31.93
2018-09-13T23:36:42.816Z,29.40
2018-09-13T23:38:55.070Z,31.87
2018-09-13T23:41:07.321Z,31.10
2018-09-13T23:43:19.503Z,31.33
2018-09-13T23:45:31.791Z,33.33
2018-09-13T23:47:44.075Z,32.83
2018-09-13T23:49:56.276Z,35.07
2018-09-13T23:52:08.557Z,34.17
2018-09-13T23:54:20.761Z,33.53
2018-09-13T23:56:33.023Z,34.33
2018-09-13T23:58:45.246Z,38.50
